sensor_id;sensor_type;location;lat;lon;timestamp;P1;durP1;ratioP1;P2;durP2;ratioP2
9142;SDS011;54072;47.410;8.446;2023-05-29T00:02:03;8.87;;;5.00;;
9142;SDS011;54072;47.410;8.446;2023-05-29T00:04:30;5.60;;;4.47;;
9142;SDS011;54072;47.410;8.446;2023-05-29T00:06:58;7.43;;;4.23;;
9142;SDS011;54072;47.410;8.446;2023-05-29T00:09:25;7.50;;;4.63;;
9142;SDS011;54072;47.410;8.446;2023-05-29T00:11:53;7.73;;;4.60;;
9142;SDS011;54072;47.410;8.446;2023-05-29T00:14:21;7.63;;;4.50;;
9142;SDS011;54072;47.410;8.446;2023-05-29T00:16:49;6.90;;;4.33;;
9142;SDS011;54072;47.410;8.446;2023-05-29T00:19:19;9.17;;;4.50;;
9142;SDS011;54072;47.410;8.446;2023-05-29T00:21:47;7.47;;;4.07;;
9142;SDS011;54072;47.410;8.446;2023-05-29T00:24:15;4.53;;;3.60;;
9142;SDS011;54072;47.410;8.446;2023-05-29T00:26:43;6.80;;;4.03;;
9142;SDS011;54072;47.410;8.446;2023-05-29T00:29:10;6.73;;;4.10;;
9142;SDS011;54072;47.410;8.446;2023-05-29T00:31:38;6.70;;;4.10;;
9142;SDS011;54072;47.410;8.446;2023-05-29T00:34:05;6.13;;;3.93;;
9142;SDS011;54072;47.410;8.446;2023-05-29T00:36:34;7.43;;;4.43;;
9142;SDS011;54072;47.410;8.446;2023-05-29T00:39:03;5.73;;;4.23;;
9142;SDS011;54072;47.410;8.446;2023-05-29T00:41:30;6.23;;;4.20;;
9142;SDS011;54072;47.410;8.446;2023-05-29T00:43:58;6.37;;;4.27;;
9142;SDS011;54072;47.410;8.446;2023-05-29T00:46:25;5.27;;;3.80;;
9142;SDS011;54072;47.410;8.446;2023-05-29T00:48:53;5.97;;;4.27;;
9142;SDS011;54072;47.410;8.446;2023-05-29T00:51:21;5.80;;;4.00;;
9142;SDS011;54072;47.410;8.446;2023-05-29T00:53:51;6.93;;;4.33;;
9142;SDS011;54072;47.410;8.446;2023-05-29T00:56:19;6.67;;;4.33;;
9142;SDS011;54072;47.410;8.446;2023-05-29T00:58:47;5.70;;;4.17;;
9142;SDS011;54072;47.410;8.446;2023-05-29T01:01:16;5.47;;;4.00;;
9142;SDS011;54072;47.410;8.446;2023-05-29T01:03:44;7.37;;;3.93;;
9142;SDS011;54072;47.410;8.446;2023-05-29T01:06:14;4.87;;;3.67;;
9142;SDS011;54072;47.410;8.446;2023-05-29T01:08:42;5.67;;;4.00;;
9142;SDS011;54072;47.410;8.446;2023-05-29T01:11:14;5.53;;;4.20;;
9142;SDS011;54072;47.410;8.446;2023-05-29T01:13:44;6.93;;;4.30;;
9142;SDS011;54072;47.410;8.446;2023-05-29T01:16:15;5.83;;;4.27;;
9142;SDS011;54072;47.410;8.446;2023-05-29T01:18:51;7.10;;;4.53;;
9142;SDS011;54072;47.410;8.446;2023-05-29T01:21:20;6.90;;;3.90;;
9142;SDS011;54072;47.410;8.446;2023-05-29T01:23:52;9.20;;;4.53;;
9142;SDS011;54072;47.410;8.446;2023-05-29T01:29:07;7.77;;;4.20;;
9142;SDS011;54072;47.410;8.446;2023-05-29T01:31:36;7.23;;;3.87;;
9142;SDS011;54072;47.410;8.446;2023-05-29T01:34:04;6.13;;;4.00;;
9142;SDS011;54072;47.410;8.446;2023-05-29T01:36:32;5.80;;;3.93;;
9142;SDS011;54072;47.410;8.446;2023-05-29T01:38:59;6.20;;;3.83;;
9142;SDS011;54072;47.410;8.446;2023-05-29T01:41:27;6.70;;;4.03;;
9142;SDS011;54072;47.410;8.446;2023-05-29T01:43:56;5.23;;;3.97;;
9142;SDS011;54072;47.410;8.446;2023-05-29T01:46:25;5.90;;;4.13;;
9142;SDS011;54072;47.410;8.446;2023-05-29T01:48:53;6.27;;;4.13;;
9142;SDS011;54072;47.410;8.446;2023-05-29T01:51:21;5.43;;;4.07;;
9142;SDS011;54072;47.410;8.446;2023-05-29T01:53:49;5.53;;;4.07;;
9142;SDS011;54072;47.410;8.446;2023-05-29T01:56:16;6.03;;;4.30;;
9142;SDS011;54072;47.410;8.446;2023-05-29T01:58:44;7.13;;;4.00;;
9142;SDS011;54072;47.410;8.446;2023-05-29T02:01:13;7.30;;;4.43;;
9142;SDS011;54072;47.410;8.446;2023-05-29T02:03:41;7.90;;;4.17;;
9142;SDS011;54072;47.410;8.446;2023-05-29T02:06:09;6.10;;;4.17;;
9142;SDS011;54072;47.410;8.446;2023-05-29T02:08:36;8.83;;;4.57;;
9142;SDS011;54072;47.410;8.446;2023-05-29T02:11:04;5.67;;;4.00;;
9142;SDS011;54072;47.410;8.446;2023-05-29T02:13:31;6.60;;;4.23;;
9142;SDS011;54072;47.410;8.446;2023-05-29T02:15:59;6.67;;;4.17;;
9142;SDS011;54072;47.410;8.446;2023-05-29T02:18:27;5.10;;;4.07;;
9142;SDS011;54072;47.410;8.446;2023-05-29T02:20:56;6.53;;;4.27;;
9142;SDS011;54072;47.410;8.446;2023-05-29T02:23:23;5.33;;;4.10;;
9142;SDS011;54072;47.410;8.446;2023-05-29T02:25:51;5.87;;;4.03;;
9142;SDS011;54072;47.410;8.446;2023-05-29T02:28:18;5.27;;;3.73;;
9142;SDS011;54072;47.410;8.446;2023-05-29T02:30:46;7.20;;;4.07;;
9142;SDS011;54072;47.410;8.446;2023-05-29T02:33:13;7.83;;;4.50;;
9142;SDS011;54072;47.410;8.446;2023-05-29T02:35:41;6.07;;;4.00;;
9142;SDS011;54072;47.410;8.446;2023-05-29T02:38:10;6.73;;;4.00;;
9142;SDS011;54072;47.410;8.446;2023-05-29T02:40:37;6.93;;;3.87;;
9142;SDS011;54072;47.410;8.446;2023-05-29T02:43:05;6.13;;;3.63;;
9142;SDS011;54072;47.410;8.446;2023-05-29T02:45:32;6.37;;;3.90;;
9142;SDS011;54072;47.410;8.446;2023-05-29T02:48:00;5.23;;;3.77;;
9142;SDS011;54072;47.410;8.446;2023-05-29T02:50:28;5.63;;;4.10;;
9142;SDS011;54072;47.410;8.446;2023-05-29T02:52:55;6.40;;;4.00;;
9142;SDS011;54072;47.410;8.446;2023-05-29T02:55:24;6.67;;;4.57;;
9142;SDS011;54072;47.410;8.446;2023-05-29T02:57:52;7.27;;;3.93;;
9142;SDS011;54072;47.410;8.446;2023-05-29T03:00:21;8.63;;;5.10;;
9142;SDS011;54072;47.410;8.446;2023-05-29T03:02:49;8.07;;;4.07;;
9142;SDS011;54072;47.410;8.446;2023-05-29T03:05:17;7.10;;;4.17;;
9142;SDS011;54072;47.410;8.446;2023-05-29T03:07:44;6.73;;;4.30;;
9142;SDS011;54072;47.410;8.446;2023-05-29T03:10:12;6.33;;;4.40;;
9142;SDS011;54072;47.410;8.446;2023-05-29T03:12:45;7.33;;;4.60;;
9142;SDS011;54072;47.410;8.446;2023-05-29T03:15:13;7.60;;;4.00;;
9142;SDS011;54072;47.410;8.446;2023-05-29T03:17:41;10.67;;;4.67;;
9142;SDS011;54072;47.410;8.446;2023-05-29T03:20:09;6.97;;;4.23;;
9142;SDS011;54072;47.410;8.446;2023-05-29T03:22:37;6.10;;;3.87;;
9142;SDS011;54072;47.410;8.446;2023-05-29T03:25:05;11.70;;;4.60;;
9142;SDS011;54072;47.410;8.446;2023-05-29T03:27:33;6.87;;;4.03;;
9142;SDS011;54072;47.410;8.446;2023-05-29T03:30:02;7.03;;;4.17;;
9142;SDS011;54072;47.410;8.446;2023-05-29T03:32:30;7.83;;;4.23;;
9142;SDS011;54072;47.410;8.446;2023-05-29T03:34:58;6.73;;;4.30;;
9142;SDS011;54072;47.410;8.446;2023-05-29T03:37:26;8.07;;;4.47;;
9142;SDS011;54072;47.410;8.446;2023-05-29T03:39:54;7.23;;;4.77;;
9142;SDS011;54072;47.410;8.446;2023-05-29T03:42:21;6.47;;;4.27;;
9142;SDS011;54072;47.410;8.446;2023-05-29T03:44:49;8.27;;;4.73;;
9142;SDS011;54072;47.410;8.446;2023-05-29T03:47:18;7.73;;;4.30;;
9142;SDS011;54072;47.410;8.446;2023-05-29T03:49:46;7.73;;;4.40;;
9142;SDS011;54072;47.410;8.446;2023-05-29T03:52:14;6.20;;;4.23;;
9142;SDS011;54072;47.410;8.446;2023-05-29T03:54:41;5.10;;;4.07;;
9142;SDS011;54072;47.410;8.446;2023-05-29T03:57:11;7.50;;;4.53;;
9142;SDS011;54072;47.410;8.446;2023-05-29T03:59:38;6.30;;;4.27;;
9142;SDS011;54072;47.410;8.446;2023-05-29T04:02:06;6.00;;;4.30;;
9142;SDS011;54072;47.410;8.446;2023-05-29T04:04:35;7.47;;;4.33;;
9142;SDS011;54072;47.410;8.446;2023-05-29T04:07:03;8.70;;;4.23;;
9142;SDS011;54072;47.410;8.446;2023-05-29T04:09:31;7.17;;;4.07;;
9142;SDS011;54072;47.410;8.446;2023-05-29T04:11:59;5.47;;;4.30;;
9142;SDS011;54072;47.410;8.446;2023-05-29T04:14:28;7.67;;;4.80;;
9142;SDS011;54072;47.410;8.446;2023-05-29T04:16:56;6.47;;;4.60;;
9142;SDS011;54072;47.410;8.446;2023-05-29T04:19:23;5.63;;;4.07;;
9142;SDS011;54072;47.410;8.446;2023-05-29T04:21:52;6.13;;;4.50;;
9142;SDS011;54072;47.410;8.446;2023-05-29T04:24:20;6.70;;;4.10;;
9142;SDS011;54072;47.410;8.446;2023-05-29T04:26:47;7.80;;;4.47;;
9142;SDS011;54072;47.410;8.446;2023-05-29T04:29:15;7.63;;;4.27;;
9142;SDS011;54072;47.410;8.446;2023-05-29T04:31:43;7.97;;;4.70;;
9142;SDS011;54072;47.410;8.446;2023-05-29T04:34:10;8.50;;;4.40;;
9142;SDS011;54072;47.410;8.446;2023-05-29T04:36:42;5.27;;;3.80;;
9142;SDS011;54072;47.410;8.446;2023-05-29T04:39:12;6.00;;;4.13;;
9142;SDS011;54072;47.410;8.446;2023-05-29T04:41:40;6.03;;;4.47;;
9142;SDS011;54072;47.410;8.446;2023-05-29T04:44:07;6.20;;;4.30;;
9142;SDS011;54072;47.410;8.446;2023-05-29T04:46:37;6.53;;;4.53;;
9142;SDS011;54072;47.410;8.446;2023-05-29T04:49:05;7.13;;;4.73;;
9142;SDS011;54072;47.410;8.446;2023-05-29T04:51:34;7.23;;;4.10;;
9142;SDS011;54072;47.410;8.446;2023-05-29T04:54:02;8.20;;;4.47;;
9142;SDS011;54072;47.410;8.446;2023-05-29T04:56:31;7.00;;;4.73;;
9142;SDS011;54072;47.410;8.446;2023-05-29T04:58:59;7.30;;;4.67;;
9142;SDS011;54072;47.410;8.446;2023-05-29T05:01:26;6.00;;;4.80;;
9142;SDS011;54072;47.410;8.446;2023-05-29T05:03:55;6.90;;;4.40;;
9142;SDS011;54072;47.410;8.446;2023-05-29T05:06:22;6.47;;;4.50;;
9142;SDS011;54072;47.410;8.446;2023-05-29T05:08:51;5.90;;;4.20;;
9142;SDS011;54072;47.410;8.446;2023-05-29T05:11:19;7.97;;;4.77;;
9142;SDS011;54072;47.410;8.446;2023-05-29T05:13:49;7.40;;;4.87;;
9142;SDS011;54072;47.410;8.446;2023-05-29T05:16:17;8.97;;;4.53;;
9142;SDS011;54072;47.410;8.446;2023-05-29T05:18:44;6.87;;;4.60;;
9142;SDS011;54072;47.410;8.446;2023-05-29T05:21:12;7.37;;;4.80;;
9142;SDS011;54072;47.410;8.446;2023-05-29T05:23:40;7.80;;;4.40;;
9142;SDS011;54072;47.410;8.446;2023-05-29T05:26:14;8.07;;;4.73;;
9142;SDS011;54072;47.410;8.446;2023-05-29T05:28:42;7.23;;;4.60;;
9142;SDS011;54072;47.410;8.446;2023-05-29T05:31:11;6.90;;;4.53;;
9142;SDS011;54072;47.410;8.446;2023-05-29T05:33:38;7.10;;;4.60;;
9142;SDS011;54072;47.410;8.446;2023-05-29T05:36:06;6.73;;;4.70;;
9142;SDS011;54072;47.410;8.446;2023-05-29T05:38:33;7.43;;;4.47;;
9142;SDS011;54072;47.410;8.446;2023-05-29T05:41:01;8.57;;;4.60;;
9142;SDS011;54072;47.410;8.446;2023-05-29T05:43:28;7.63;;;4.43;;
9142;SDS011;54072;47.410;8.446;2023-05-29T05:45:56;6.73;;;4.37;;
9142;SDS011;54072;47.410;8.446;2023-05-29T05:48:25;6.03;;;4.40;;
9142;SDS011;54072;47.410;8.446;2023-05-29T05:50:52;7.33;;;5.10;;
9142;SDS011;54072;47.410;8.446;2023-05-29T05:53:20;8.80;;;5.00;;
9142;SDS011;54072;47.410;8.446;2023-05-29T05:55:48;6.97;;;4.90;;
9142;SDS011;54072;47.410;8.446;2023-05-29T05:58:15;8.47;;;4.77;;
9142;SDS011;54072;47.410;8.446;2023-05-29T06:00:43;9.60;;;4.53;;
9142;SDS011;54072;47.410;8.446;2023-05-29T06:03:10;6.37;;;4.30;;
9142;SDS011;54072;47.410;8.446;2023-05-29T06:05:39;6.37;;;4.70;;
9142;SDS011;54072;47.410;8.446;2023-05-29T06:08:07;8.20;;;4.50;;
9142;SDS011;54072;47.410;8.446;2023-05-29T06:10:35;9.03;;;4.60;;
9142;SDS011;54072;47.410;8.446;2023-05-29T06:13:03;8.17;;;4.37;;
9142;SDS011;54072;47.410;8.446;2023-05-29T06:15:30;7.80;;;4.50;;
9142;SDS011;54072;47.410;8.446;2023-05-29T06:17:58;8.23;;;4.57;;
9142;SDS011;54072;47.410;8.446;2023-05-29T06:20:26;6.47;;;4.60;;
9142;SDS011;54072;47.410;8.446;2023-05-29T06:22:55;7.87;;;5.00;;
9142;SDS011;54072;47.410;8.446;2023-05-29T06:25:23;6.60;;;4.63;;
9142;SDS011;54072;47.410;8.446;2023-05-29T06:27:58;8.53;;;4.97;;
9142;SDS011;54072;47.410;8.446;2023-05-29T06:30:25;7.03;;;4.73;;
9142;SDS011;54072;47.410;8.446;2023-05-29T06:32:53;9.73;;;4.97;;
9142;SDS011;54072;47.410;8.446;2023-05-29T06:35:21;7.97;;;4.87;;
9142;SDS011;54072;47.410;8.446;2023-05-29T06:37:48;7.13;;;4.50;;
9142;SDS011;54072;47.410;8.446;2023-05-29T06:40:17;7.43;;;5.07;;
9142;SDS011;54072;47.410;8.446;2023-05-29T06:42:44;5.73;;;4.50;;
9142;SDS011;54072;47.410;8.446;2023-05-29T06:45:12;6.20;;;4.40;;
9142;SDS011;54072;47.410;8.446;2023-05-29T06:47:41;8.37;;;4.73;;
9142;SDS011;54072;47.410;8.446;2023-05-29T06:50:08;7.20;;;5.10;;
9142;SDS011;54072;47.410;8.446;2023-05-29T06:52:36;7.93;;;4.90;;
9142;SDS011;54072;47.410;8.446;2023-05-29T06:55:04;6.60;;;4.70;;
9142;SDS011;54072;47.410;8.446;2023-05-29T06:57:33;7.50;;;5.00;;
9142;SDS011;54072;47.410;8.446;2023-05-29T07:00:01;7.77;;;4.63;;
9142;SDS011;54072;47.410;8.446;2023-05-29T07:02:30;8.30;;;5.00;;
9142;SDS011;54072;47.410;8.446;2023-05-29T07:04:57;7.33;;;4.90;;
9142;SDS011;54072;47.410;8.446;2023-05-29T07:07:25;6.70;;;4.93;;
9142;SDS011;54072;47.410;8.446;2023-05-29T07:09:52;7.83;;;4.53;;
9142;SDS011;54072;47.410;8.446;2023-05-29T07:12:21;9.23;;;4.50;;
9142;SDS011;54072;47.410;8.446;2023-05-29T07:14:50;6.83;;;4.93;;
9142;SDS011;54072;47.410;8.446;2023-05-29T07:17:18;7.20;;;4.47;;
9142;SDS011;54072;47.410;8.446;2023-05-29T07:19:45;5.77;;;4.73;;
9142;SDS011;54072;47.410;8.446;2023-05-29T07:22:15;7.17;;;5.17;;
9142;SDS011;54072;47.410;8.446;2023-05-29T07:24:43;6.60;;;4.53;;
9142;SDS011;54072;47.410;8.446;2023-05-29T07:27:10;7.40;;;5.00;;
9142;SDS011;54072;47.410;8.446;2023-05-29T07:29:38;7.97;;;5.00;;
9142;SDS011;54072;47.410;8.446;2023-05-29T07:32:07;6.85;;;4.72;;
9142;SDS011;54072;47.410;8.446;2023-05-29T07:34:34;6.70;;;4.80;;
9142;SDS011;54072;47.410;8.446;2023-05-29T07:37:02;6.95;;;4.93;;
9142;SDS011;54072;47.410;8.446;2023-05-29T07:39:30;7.50;;;5.40;;
9142;SDS011;54072;47.410;8.446;2023-05-29T07:41:58;8.48;;;5.10;;
9142;SDS011;54072;47.410;8.446;2023-05-29T07:44:27;5.25;;;4.45;;
9142;SDS011;54072;47.410;8.446;2023-05-29T07:46:54;11.00;;;4.97;;
9142;SDS011;54072;47.410;8.446;2023-05-29T07:49:23;7.93;;;5.00;;
9142;SDS011;54072;47.410;8.446;2023-05-29T07:51:51;8.20;;;4.93;;
9142;SDS011;54072;47.410;8.446;2023-05-29T07:54:18;6.07;;;4.63;;
9142;SDS011;54072;47.410;8.446;2023-05-29T07:56:47;10.60;;;5.15;;
9142;SDS011;54072;47.410;8.446;2023-05-29T07:59:14;6.82;;;5.32;;
9142;SDS011;54072;47.410;8.446;2023-05-29T08:01:43;5.93;;;4.82;;
9142;SDS011;54072;47.410;8.446;2023-05-29T08:04:11;7.18;;;5.18;;
9142;SDS011;54072;47.410;8.446;2023-05-29T08:06:40;7.10;;;4.90;;
9142;SDS011;54072;47.410;8.446;2023-05-29T08:09:08;6.78;;;4.53;;
9142;SDS011;54072;47.410;8.446;2023-05-29T08:11:36;7.20;;;4.95;;
9142;SDS011;54072;47.410;8.446;2023-05-29T08:14:06;8.30;;;4.93;;
9142;SDS011;54072;47.410;8.446;2023-05-29T08:16:35;7.07;;;5.45;;
9142;SDS011;54072;47.410;8.446;2023-05-29T08:19:02;9.35;;;4.45;;
9142;SDS011;54072;47.410;8.446;2023-05-29T08:21:30;7.65;;;5.20;;
9142;SDS011;54072;47.410;8.446;2023-05-29T08:23:59;7.60;;;5.07;;
9142;SDS011;54072;47.410;8.446;2023-05-29T08:26:26;7.32;;;4.70;;
9142;SDS011;54072;47.410;8.446;2023-05-29T08:28:54;5.15;;;4.65;;
9142;SDS011;54072;47.410;8.446;2023-05-29T08:31:22;5.95;;;4.80;;
9142;SDS011;54072;47.410;8.446;2023-05-29T08:33:51;5.97;;;4.80;;
9142;SDS011;54072;47.410;8.446;2023-05-29T08:36:19;5.90;;;4.50;;
9142;SDS011;54072;47.410;8.446;2023-05-29T08:38:48;6.72;;;4.72;;
9142;SDS011;54072;47.410;8.446;2023-05-29T08:41:17;7.95;;;4.82;;
9142;SDS011;54072;47.410;8.446;2023-05-29T08:43:45;6.35;;;5.07;;
9142;SDS011;54072;47.410;8.446;2023-05-29T08:46:14;6.35;;;5.00;;
9142;SDS011;54072;47.410;8.446;2023-05-29T08:48:43;8.57;;;4.97;;
9142;SDS011;54072;47.410;8.446;2023-05-29T08:51:14;5.88;;;4.95;;
9142;SDS011;54072;47.410;8.446;2023-05-29T08:53:42;6.93;;;4.90;;
9142;SDS011;54072;47.410;8.446;2023-05-29T08:56:09;5.05;;;4.47;;
9142;SDS011;54072;47.410;8.446;2023-05-29T08:58:41;6.38;;;4.43;;
9142;SDS011;54072;47.410;8.446;2023-05-29T09:01:10;6.68;;;5.10;;
9142;SDS011;54072;47.410;8.446;2023-05-29T09:03:38;9.27;;;4.75;;
9142;SDS011;54072;47.410;8.446;2023-05-29T09:06:07;5.97;;;4.57;;
9142;SDS011;54072;47.410;8.446;2023-05-29T09:08:35;5.22;;;4.50;;
9142;SDS011;54072;47.410;8.446;2023-05-29T09:11:03;7.30;;;4.50;;
9142;SDS011;54072;47.410;8.446;2023-05-29T09:13:31;5.75;;;4.95;;
9142;SDS011;54072;47.410;8.446;2023-05-29T09:16:00;7.25;;;4.97;;
9142;SDS011;54072;47.410;8.446;2023-05-29T09:18:29;7.85;;;4.70;;
9142;SDS011;54072;47.410;8.446;2023-05-29T09:20:58;5.78;;;4.88;;
9142;SDS011;54072;47.410;8.446;2023-05-29T09:23:27;7.22;;;4.90;;
9142;SDS011;54072;47.410;8.446;2023-05-29T09:25:55;7.70;;;4.60;;
9142;SDS011;54072;47.410;8.446;2023-05-29T09:28:22;7.22;;;4.88;;
9142;SDS011;54072;47.410;8.446;2023-05-29T09:30:53;6.05;;;4.72;;
9142;SDS011;54072;47.410;8.446;2023-05-29T09:33:22;5.57;;;4.97;;
9142;SDS011;54072;47.410;8.446;2023-05-29T09:35:50;7.95;;;4.97;;
9142;SDS011;54072;47.410;8.446;2023-05-29T09:38:18;5.90;;;4.63;;
9142;SDS011;54072;47.410;8.446;2023-05-29T09:40:54;6.53;;;4.50;;
9142;SDS011;54072;47.410;8.446;2023-05-29T09:43:26;6.20;;;4.68;;
9142;SDS011;54072;47.410;8.446;2023-05-29T09:45:54;6.68;;;4.80;;
9142;SDS011;54072;47.410;8.446;2023-05-29T09:48:23;5.95;;;4.57;;
9142;SDS011;54072;47.410;8.446;2023-05-29T09:50:51;8.45;;;5.05;;
9142;SDS011;54072;47.410;8.446;2023-05-29T09:53:21;5.80;;;4.70;;
9142;SDS011;54072;47.410;8.446;2023-05-29T09:55:50;8.20;;;4.65;;
9142;SDS011;54072;47.410;8.446;2023-05-29T09:58:19;7.45;;;4.80;;
9142;SDS011;54072;47.410;8.446;2023-05-29T10:00:47;6.82;;;4.85;;
9142;SDS011;54072;47.410;8.446;2023-05-29T10:03:15;5.40;;;4.63;;
9142;SDS011;54072;47.410;8.446;2023-05-29T10:05:44;8.20;;;4.97;;
9142;SDS011;54072;47.410;8.446;2023-05-29T10:08:15;6.35;;;4.60;;
9142;SDS011;54072;47.410;8.446;2023-05-29T10:10:45;6.20;;;4.97;;
9142;SDS011;54072;47.410;8.446;2023-05-29T10:13:14;5.50;;;4.68;;
9142;SDS011;54072;47.410;8.446;2023-05-29T10:15:43;5.68;;;4.15;;
9142;SDS011;54072;47.410;8.446;2023-05-29T10:18:13;4.80;;;4.28;;
9142;SDS011;54072;47.410;8.446;2023-05-29T10:20:45;5.90;;;4.90;;
9142;SDS011;54072;47.410;8.446;2023-05-29T10:23:14;5.47;;;4.95;;
9142;SDS011;54072;47.410;8.446;2023-05-29T10:25:41;7.40;;;5.25;;
9142;SDS011;54072;47.410;8.446;2023-05-29T10:28:12;4.70;;;4.30;;
9142;SDS011;54072;47.410;8.446;2023-05-29T10:30:41;5.95;;;5.00;;
9142;SDS011;54072;47.410;8.446;2023-05-29T10:33:16;7.03;;;4.82;;
9142;SDS011;54072;47.410;8.446;2023-05-29T10:35:51;5.70;;;4.30;;
9142;SDS011;54072;47.410;8.446;2023-05-29T10:38:20;5.25;;;4.75;;
9142;SDS011;54072;47.410;8.446;2023-05-29T10:40:48;7.22;;;4.82;;
9142;SDS011;54072;47.410;8.446;2023-05-29T10:43:32;6.15;;;4.75;;
9142;SDS011;54072;47.410;8.446;2023-05-29T10:45:59;4.75;;;4.35;;
9142;SDS011;54072;47.410;8.446;2023-05-29T10:48:42;5.88;;;4.65;;
9142;SDS011;54072;47.410;8.446;2023-05-29T10:51:27;6.45;;;4.85;;
9142;SDS011;54072;47.410;8.446;2023-05-29T10:53:57;5.85;;;4.85;;
9142;SDS011;54072;47.410;8.446;2023-05-29T10:56:27;6.93;;;4.93;;
9142;SDS011;54072;47.410;8.446;2023-05-29T10:58:59;5.00;;;4.60;;
9142;SDS011;54072;47.410;8.446;2023-05-29T11:01:27;5.10;;;4.57;;
9142;SDS011;54072;47.410;8.446;2023-05-29T11:06:39;6.47;;;4.68;;
9142;SDS011;54072;47.410;8.446;2023-05-29T11:09:07;8.20;;;4.72;;
9142;SDS011;54072;47.410;8.446;2023-05-29T11:14:44;5.00;;;4.20;;
9142;SDS011;54072;47.410;8.446;2023-05-29T11:19:54;4.75;;;4.28;;
9142;SDS011;54072;47.410;8.446;2023-05-29T11:22:26;6.97;;;5.20;;
9142;SDS011;54072;47.410;8.446;2023-05-29T11:24:55;5.68;;;4.18;;
9142;SDS011;54072;47.410;8.446;2023-05-29T11:27:24;4.70;;;4.20;;
9142;SDS011;54072;47.410;8.446;2023-05-29T11:29:52;5.70;;;3.90;;
9142;SDS011;54072;47.410;8.446;2023-05-29T11:32:21;5.97;;;4.30;;
9142;SDS011;54072;47.410;8.446;2023-05-29T11:34:52;5.10;;;4.00;;
9142;SDS011;54072;47.410;8.446;2023-05-29T11:37:22;5.68;;;4.00;;
9142;SDS011;54072;47.410;8.446;2023-05-29T11:39:52;4.22;;;3.83;;
9142;SDS011;54072;47.410;8.446;2023-05-29T11:42:19;5.93;;;4.50;;
9142;SDS011;54072;47.410;8.446;2023-05-29T11:44:47;4.47;;;4.07;;
9142;SDS011;54072;47.410;8.446;2023-05-29T11:47:14;5.85;;;4.60;;
9142;SDS011;54072;47.410;8.446;2023-05-29T11:49:42;4.88;;;4.28;;
9142;SDS011;54072;47.410;8.446;2023-05-29T11:52:12;4.82;;;4.30;;
9142;SDS011;54072;47.410;8.446;2023-05-29T11:54:41;6.68;;;4.65;;
9142;SDS011;54072;47.410;8.446;2023-05-29T11:57:18;6.78;;;4.80;;
9142;SDS011;54072;47.410;8.446;2023-05-29T11:59:46;5.38;;;4.35;;
9142;SDS011;54072;47.410;8.446;2023-05-29T12:02:13;5.90;;;4.50;;
9142;SDS011;54072;47.410;8.446;2023-05-29T12:04:41;6.43;;;4.72;;
9142;SDS011;54072;47.410;8.446;2023-05-29T12:07:16;5.95;;;4.70;;
9142;SDS011;54072;47.410;8.446;2023-05-29T12:09:44;5.90;;;4.68;;
9142;SDS011;54072;47.410;8.446;2023-05-29T12:12:11;6.53;;;4.97;;
9142;SDS011;54072;47.410;8.446;2023-05-29T12:14:40;6.38;;;4.68;;
9142;SDS011;54072;47.410;8.446;2023-05-29T12:17:08;5.75;;;5.10;;
9142;SDS011;54072;47.410;8.446;2023-05-29T12:19:36;5.30;;;4.80;;
9142;SDS011;54072;47.410;8.446;2023-05-29T12:22:03;5.70;;;4.90;;
9142;SDS011;54072;47.410;8.446;2023-05-29T12:24:31;8.10;;;5.05;;
9142;SDS011;54072;47.410;8.446;2023-05-29T12:27:05;6.03;;;5.13;;
9142;SDS011;54072;47.410;8.446;2023-05-29T12:29:34;7.63;;;5.32;;
9142;SDS011;54072;47.410;8.446;2023-05-29T12:32:02;5.18;;;4.68;;
9142;SDS011;54072;47.410;8.446;2023-05-29T12:34:33;5.43;;;4.72;;
9142;SDS011;54072;47.410;8.446;2023-05-29T12:37:05;9.77;;;4.85;;
9142;SDS011;54072;47.410;8.446;2023-05-29T12:39:32;5.03;;;4.53;;
9142;SDS011;54072;47.410;8.446;2023-05-29T12:42:00;5.10;;;4.60;;
9142;SDS011;54072;47.410;8.446;2023-05-29T12:44:27;5.43;;;4.53;;
9142;SDS011;54072;47.410;8.446;2023-05-29T12:46:56;6.47;;;5.10;;
9142;SDS011;54072;47.410;8.446;2023-05-29T12:49:25;5.60;;;5.00;;
9142;SDS011;54072;47.410;8.446;2023-05-29T12:51:54;6.82;;;5.10;;
9142;SDS011;54072;47.410;8.446;2023-05-29T12:54:22;5.57;;;4.63;;
9142;SDS011;54072;47.410;8.446;2023-05-29T12:56:49;6.95;;;5.07;;
9142;SDS011;54072;47.410;8.446;2023-05-29T12:59:18;5.82;;;4.93;;
9142;SDS011;54072;47.410;8.446;2023-05-29T13:01:45;5.28;;;4.75;;
9142;SDS011;54072;47.410;8.446;2023-05-29T13:04:13;6.30;;;5.30;;
9142;SDS011;54072;47.410;8.446;2023-05-29T13:06:43;6.13;;;5.60;;
9142;SDS011;54072;47.410;8.446;2023-05-29T13:09:11;5.38;;;4.75;;
9142;SDS011;54072;47.410;8.446;2023-05-29T13:11:39;5.45;;;4.72;;
9142;SDS011;54072;47.410;8.446;2023-05-29T13:14:08;6.63;;;4.78;;
9142;SDS011;54072;47.410;8.446;2023-05-29T13:16:36;5.97;;;5.13;;
9142;SDS011;54072;47.410;8.446;2023-05-29T13:19:04;5.57;;;5.07;;
9142;SDS011;54072;47.410;8.446;2023-05-29T13:21:31;7.00;;;4.97;;
9142;SDS011;54072;47.410;8.446;2023-05-29T13:24:01;8.68;;;5.50;;
9142;SDS011;54072;47.410;8.446;2023-05-29T13:26:28;6.75;;;4.82;;
9142;SDS011;54072;47.410;8.446;2023-05-29T13:28:56;6.40;;;5.78;;
9142;SDS011;54072;47.410;8.446;2023-05-29T13:31:23;6.05;;;5.45;;
9142;SDS011;54072;47.410;8.446;2023-05-29T13:33:51;5.45;;;4.95;;
9142;SDS011;54072;47.410;8.446;2023-05-29T13:36:18;5.40;;;4.90;;
9142;SDS011;54072;47.410;8.446;2023-05-29T13:38:46;5.53;;;4.95;;
9142;SDS011;54072;47.410;8.446;2023-05-29T13:41:15;6.43;;;5.30;;
9142;SDS011;54072;47.410;8.446;2023-05-29T13:43:42;5.90;;;4.90;;
9142;SDS011;54072;47.410;8.446;2023-05-29T13:46:10;6.55;;;4.72;;
9142;SDS011;54072;47.410;8.446;2023-05-29T13:48:38;9.30;;;5.07;;
9142;SDS011;54072;47.410;8.446;2023-05-29T13:51:05;5.78;;;5.28;;
9142;SDS011;54072;47.410;8.446;2023-05-29T13:53:33;6.07;;;4.80;;
9142;SDS011;54072;47.410;8.446;2023-05-29T13:56:00;5.38;;;4.47;;
9142;SDS011;54072;47.410;8.446;2023-05-29T13:58:29;5.00;;;4.55;;
9142;SDS011;54072;47.410;8.446;2023-05-29T14:00:57;5.53;;;4.63;;
9142;SDS011;54072;47.410;8.446;2023-05-29T14:03:25;5.40;;;4.90;;
9142;SDS011;54072;47.410;8.446;2023-05-29T14:05:55;5.50;;;4.57;;
9142;SDS011;54072;47.410;8.446;2023-05-29T14:08:22;5.85;;;4.40;;
9142;SDS011;54072;47.410;8.446;2023-05-29T14:10:50;4.85;;;4.35;;
9142;SDS011;54072;47.410;8.446;2023-05-29T14:13:18;5.78;;;4.68;;
9142;SDS011;54072;47.410;8.446;2023-05-29T14:15:47;4.80;;;4.40;;
9142;SDS011;54072;47.410;8.446;2023-05-29T14:18:15;5.75;;;4.75;;
9142;SDS011;54072;47.410;8.446;2023-05-29T14:20:43;6.55;;;4.65;;
9142;SDS011;54072;47.410;8.446;2023-05-29T14:23:16;4.63;;;4.20;;
9142;SDS011;54072;47.410;8.446;2023-05-29T14:25:44;5.03;;;4.53;;
9142;SDS011;54072;47.410;8.446;2023-05-29T14:28:11;6.18;;;4.68;;
9142;SDS011;54072;47.410;8.446;2023-05-29T14:30:39;4.78;;;4.30;;
9142;SDS011;54072;47.410;8.446;2023-05-29T14:33:08;4.82;;;4.32;;
9142;SDS011;54072;47.410;8.446;2023-05-29T14:35:35;5.05;;;4.38;;
9142;SDS011;54072;47.410;8.446;2023-05-29T14:38:03;5.30;;;4.55;;
9142;SDS011;54072;47.410;8.446;2023-05-29T14:40:30;5.43;;;4.18;;
9142;SDS011;54072;47.410;8.446;2023-05-29T14:43:00;7.88;;;4.40;;
9142;SDS011;54072;47.410;8.446;2023-05-29T14:45:27;4.90;;;4.45;;
9142;SDS011;54072;47.410;8.446;2023-05-29T14:47:55;5.65;;;4.45;;
9142;SDS011;54072;47.410;8.446;2023-05-29T14:50:24;5.05;;;3.92;;
9142;SDS011;54072;47.410;8.446;2023-05-29T14:52:51;4.40;;;4.00;;
9142;SDS011;54072;47.410;8.446;2023-05-29T14:55:19;5.35;;;4.15;;
9142;SDS011;54072;47.410;8.446;2023-05-29T14:57:47;4.60;;;4.20;;
9142;SDS011;54072;47.410;8.446;2023-05-29T15:00:14;4.75;;;4.18;;
9142;SDS011;54072;47.410;8.446;2023-05-29T15:02:43;5.32;;;4.32;;
9142;SDS011;54072;47.410;8.446;2023-05-29T15:05:10;4.47;;;3.80;;
9142;SDS011;54072;47.410;8.446;2023-05-29T15:07:39;4.07;;;3.60;;
9142;SDS011;54072;47.410;8.446;2023-05-29T15:10:07;7.85;;;4.20;;
9142;SDS011;54072;47.410;8.446;2023-05-29T15:12:35;5.65;;;3.70;;
9142;SDS011;54072;47.410;8.446;2023-05-29T15:15:02;5.18;;;3.97;;
9142;SDS011;54072;47.410;8.446;2023-05-29T15:17:30;5.32;;;4.00;;
9142;SDS011;54072;47.410;8.446;2023-05-29T15:19:58;4.50;;;3.97;;